Time;durP1;ratioP1;P1;durP2;ratioP2;P2;SDS_P1;SDS_P2;PMS_P1;PMS_P2;Temp;Humidity;BMP_temperature;BMP_pressure;BME280_temperature;BME280_humidity;BME280_pressure;Samples;Min_cycle;Max_cycle;Signal;HPM_P1;HPM_P2
2024/01/17 00:00:34;;;;;;;;;20.75;19.00;;;;;;;;5042992;28;48063;-83
2024/01/17 00:02:59;;;;;;;;;27.25;21.25;;;;;;;;5042721;28;45349;-81
2024/01/17 00:05:24;;;;;;;;;20.00;19.75;;;;;;;;5061439;28;45477;-82
2024/01/17 00:07:49;;;;;;;;;24.00;20.25;;;;;;;;5043179;28;45939;-82
2024/01/17 00:10:16;;;;;;;;;21.25;21.25;;;;;;;;5043186;28;47016;-80
2024/01/17 00:12:41;;;;;;;;;18.50;18.50;;;;;;;;5061531;28;45313;-80
2024/01/17 00:15:07;;;;;;;;;33.25;26.50;;;;;;;;5061328;28;45468;-81
2024/01/17 00:17:32;;;;;;;;;23.75;23.50;;;;;;;;5061257;28;45466;-81
2024/01/17 00:19:57;;;;;;;;;24.00;23.75;;;;;;;;5061043;28;46200;-82
2024/01/17 00:22:22;;;;;;;;;24.00;23.00;;;;;;;;5043093;28;45251;-81
2024/01/17 00:24:49;;;;;;;;;22.50;22.50;;;;;;;;5061487;28;45121;-81
2024/01/17 00:27:14;;;;;;;;;23.50;23.00;;;;;;;;5061164;28;45473;-82
2024/01/17 00:29:39;;;;;;;;;23.50;19.75;;;;;;;;5060715;28;45330;-81
2024/01/17 00:32:04;;;;;;;;;22.75;20.75;;;;;;;;5060600;28;45299;-82
2024/01/17 00:34:29;;;;;;;;;18.50;17.00;;;;;;;;5060467;28;45314;-81
2024/01/17 00:36:55;;;;;;;;;19.50;19.00;;;;;;;;5060925;28;45536;-82
2024/01/17 00:39:22;;;;;;;;;20.25;19.75;;;;;;;;5060175;28;45405;-81
2024/01/17 00:41:47;;;;;;;;;8.75;5.50;;;;;;;;5060562;28;45434;-81
2024/01/17 00:44:16;;;;;;;;;24.00;20.75;;;;;;;;5060191;28;45343;-83
2024/01/17 00:46:42;;;;;;;;;24.50;23.25;;;;;;;;5059959;28;45522;-81
2024/01/17 00:49:07;;;;;;;;;20.75;20.75;;;;;;;;5060251;28;46670;-81
2024/01/17 00:51:32;;;;;;;;;24.50;18.50;;;;;;;;5060634;28;45466;-81
2024/01/17 00:53:57;;;;;;;;;25.25;25.00;;;;;;;;5060478;28;45190;-81
2024/01/17 00:56:23;;;;;;;;;25.00;21.50;;;;;;;;5060709;28;45418;-82
2024/01/17 00:58:48;;;;;;;;;26.50;26.50;;;;;;;;5060036;28;45570;-82
2024/01/17 01:01:13;;;;;;;;;24.00;22.50;;;;;;;;5042256;28;45240;-82
2024/01/17 01:03:39;;;;;;;;;19.25;17.25;;;;;;;;5042265;28;45421;-81
2024/01/17 01:06:04;;;;;;;;;22.25;19.25;;;;;;;;5042206;28;45894;-83
2024/01/17 01:08:30;;;;;;;;;26.75;25.50;;;;;;;;5060404;28;46259;-83
2024/01/17 01:10:55;;;;;;;;;29.75;26.50;;;;;;;;5060687;28;45305;-83
2024/01/17 01:13:20;;;;;;;;;24.50;20.25;;;;;;;;5060742;28;45319;-83
2024/01/17 01:15:46;;;;;;;;;24.50;22.25;;;;;;;;5060087;28;45320;-81
2024/01/17 01:18:11;;;;;;;;;20.50;20.00;;;;;;;;5041341;28;46574;-82
2024/01/17 01:20:36;;;;;;;;;24.25;23.25;;;;;;;;5041101;28;45513;-81
2024/01/17 01:23:02;;;;;;;;;25.25;24.00;;;;;;;;5059868;28;45209;-81
2024/01/17 01:25:28;;;;;;;;;27.00;25.00;;;;;;;;5060089;28;45550;-81
2024/01/17 01:27:53;;;;;;;;;26.00;23.50;;;;;;;;5060125;28;46171;-82
2024/01/17 01:30:18;;;;;;;;;21.50;20.50;;;;;;;;5041768;28;46085;-82
2024/01/17 01:32:44;;;;;;;;;29.50;27.50;;;;;;;;5059972;28;45379;-82
2024/01/17 01:35:09;;;;;;;;;25.25;25.00;;;;;;;;5059775;28;45684;-81
2024/01/17 01:37:34;;;;;;;;;26.75;24.25;;;;;;;;5041786;28;47272;-82
2024/01/17 01:39:59;;;;;;;;;26.75;25.75;;;;;;;;5041725;28;45410;-82
2024/01/17 01:42:24;;;;;;;;;17.25;12.75;;;;;;;;5042127;28;45344;-82
2024/01/17 01:44:49;;;;;;;;;24.75;24.75;;;;;;;;5059965;28;45249;-82
2024/01/17 01:47:15;;;;;;;;;28.50;28.50;;;;;;;;5059815;28;45378;-81
2024/01/17 01:49:40;;;;;;;;;21.00;20.00;;;;;;;;5058306;28;45304;-82
2024/01/17 01:52:06;;;;;;;;;26.00;24.00;;;;;;;;5041345;28;45447;-82
2024/01/17 01:54:32;;;;;;;;;26.25;23.25;;;;;;;;5041638;28;46178;-83
2024/01/17 01:56:59;;;;;;;;;24.75;22.25;;;;;;;;5059604;28;45392;-82
2024/01/17 01:59:24;;;;;;;;;20.75;20.00;;;;;;;;5059267;28;45320;-82
2024/01/17 02:01:49;;;;;;;;;30.50;23.00;;;;;;;;5059786;28;45253;-83
2024/01/17 02:04:15;;;;;;;;;25.75;24.75;;;;;;;;5040879;28;46143;-82
2024/01/17 02:06:42;;;;;;;;;27.25;25.75;;;;;;;;5041430;28;48085;-82
2024/01/17 02:09:08;;;;;;;;;27.25;26.25;;;;;;;;5059670;28;45649;-83
2024/01/17 02:11:34;;;;;;;;;28.00;25.00;;;;;;;;5059726;28;45362;-83
2024/01/17 02:13:59;;;;;;;;;29.25;27.00;;;;;;;;5041545;28;45514;-82
2024/01/17 02:16:24;;;;;;;;;31.75;29.25;;;;;;;;5041175;28;48122;-82
2024/01/17 02:18:50;;;;;;;;;31.25;28.25;;;;;;;;5040741;28;46008;-82
2024/01/17 02:21:15;;;;;;;;;29.75;25.00;;;;;;;;5059569;28;45519;-81
2024/01/17 02:23:40;;;;;;;;;25.75;22.75;;;;;;;;5059343;28;46100;-82
2024/01/17 02:26:06;;;;;;;;;26.00;23.75;;;;;;;;5059520;28;45462;-82
2024/01/17 02:28:31;;;;;;;;;29.00;25.75;;;;;;;;5059235;28;45336;-81
2024/01/17 02:30:57;;;;;;;;;28.75;24.75;;;;;;;;5059268;28;45355;-82
2024/01/17 02:33:23;;;;;;;;;28.25;27.50;;;;;;;;5040980;28;45570;-81
2024/01/17 02:35:48;;;;;;;;;29.25;22.00;;;;;;;;5040790;28;47435;-82
2024/01/17 02:38:13;;;;;;;;;30.00;26.25;;;;;;;;5059302;28;45264;-80
2024/01/17 02:40:39;;;;;;;;;25.25;24.25;;;;;;;;5041214;28;45279;-80
2024/01/17 02:43:04;;;;;;;;;26.00;25.00;;;;;;;;5059311;28;45264;-81
2024/01/17 02:45:30;;;;;;;;;31.50;27.25;;;;;;;;5067250;28;45379;-80
2024/01/17 02:47:55;;;;;;;;;26.50;24.25;;;;;;;;5047514;28;45455;-80
2024/01/17 02:50:20;;;;;;;;;22.75;22.75;;;;;;;;5040849;28;45390;-80
2024/01/17 02:52:46;;;;;;;;;36.00;29.00;;;;;;;;5058061;28;45259;-80
2024/01/17 02:55:11;;;;;;;;;34.00;26.25;;;;;;;;5058204;28;45358;-80
2024/01/17 02:57:37;;;;;;;;;27.25;25.75;;;;;;;;5040600;28;45257;-80
2024/01/17 03:00:03;;;;;;;;;30.50;26.50;;;;;;;;5040727;28;45243;-80
2024/01/17 03:02:28;;;;;;;;;32.75;30.75;;;;;;;;5061412;28;45458;-80
2024/01/17 03:04:53;;;;;;;;;29.25;28.00;;;;;;;;5062205;28;45506;-80
2024/01/17 03:07:18;;;;;;;;;29.50;27.25;;;;;;;;5062291;28;45320;-79
2024/01/17 03:09:43;;;;;;;;;26.50;25.00;;;;;;;;5062532;28;45315;-80
2024/01/17 03:12:09;;;;;;;;;23.50;22.50;;;;;;;;5062324;28;45324;-80
2024/01/17 03:14:35;;;;;;;;;29.00;25.50;;;;;;;;5043865;28;48325;-80
2024/01/17 03:17:01;;;;;;;;;27.75;23.50;;;;;;;;5043423;28;45938;-81
2024/01/17 03:19:26;;;;;;;;;34.25;29.75;;;;;;;;5043607;28;45423;-79
2024/01/17 03:21:51;;;;;;;;;30.25;25.00;;;;;;;;5043669;28;46571;-80
2024/01/17 03:24:16;;;;;;;;;22.75;22.75;;;;;;;;5061835;28;46213;-79
2024/01/17 03:26:42;;;;;;;;;21.25;19.50;;;;;;;;5043587;28;45353;-80
2024/01/17 03:29:07;;;;;;;;;33.00;29.75;;;;;;;;5061885;28;45419;-79
2024/01/17 03:31:32;;;;;;;;;29.00;25.00;;;;;;;;5061669;28;45379;-79
2024/01/17 03:33:57;;;;;;;;;29.00;24.50;;;;;;;;5061177;28;45560;-79
2024/01/17 03:36:22;;;;;;;;;28.00;26.50;;;;;;;;5061856;28;45449;-79
2024/01/17 03:38:48;;;;;;;;;28.75;25.25;;;;;;;;5061996;28;45302;-79
2024/01/17 03:41:13;;;;;;;;;32.25;28.75;;;;;;;;5061893;28;45260;-79
2024/01/17 03:43:38;;;;;;;;;28.75;25.50;;;;;;;;5043450;28;48347;-80
2024/01/17 03:46:03;;;;;;;;;32.75;32.00;;;;;;;;5061209;28;45285;-79
2024/01/17 03:48:28;;;;;;;;;27.25;24.50;;;;;;;;5061498;28;45323;-78
2024/01/17 03:50:53;;;;;;;;;8.00;6.00;;;;;;;;5061640;28;45277;-79
2024/01/17 03:53:19;;;;;;;;;28.25;25.75;;;;;;;;5061259;28;46427;-78
2024/01/17 03:55:44;;;;;;;;;30.25;25.75;;;;;;;;5061452;28;45276;-78
2024/01/17 03:58:09;;;;;;;;;25.50;23.50;;;;;;;;5061406;28;45224;-78
2024/01/17 04:00:34;;;;;;;;;31.75;28.00;;;;;;;;5060733;28;45319;-78
2024/01/17 04:02:59;;;;;;;;;34.00;29.00;;;;;;;;5061122;28;46569;-77
2024/01/17 04:05:25;;;;;;;;;25.25;25.25;;;;;;;;5061345;28;45291;-78
2024/01/17 04:07:53;;;;;;;;;23.00;21.25;;;;;;;;5061266;28;45378;-78
2024/01/17 04:10:18;;;;;;;;;29.00;25.50;;;;;;;;5043030;28;46995;-77
2024/01/17 04:12:43;;;;;;;;;27.25;26.00;;;;;;;;5059948;28;45416;-78
2024/01/17 04:15:08;;;;;;;;;30.25;26.00;;;;;;;;5061270;28;45359;-78
2024/01/17 04:17:35;;;;;;;;;33.00;28.00;;;;;;;;5042857;28;45537;-78
2024/01/17 04:20:00;;;;;;;;;28.00;23.25;;;;;;;;5060855;28;45258;-77
2024/01/17 04:22:26;;;;;;;;;26.25;21.00;;;;;;;;5061029;28;45441;-77
2024/01/17 04:24:51;;;;;;;;;31.25;28.00;;;;;;;;5060830;28;45337;-78
2024/01/17 04:27:16;;;;;;;;;28.75;25.50;;;;;;;;5061030;28;45462;-77
2024/01/17 04:29:41;;;;;;;;;32.50;28.75;;;;;;;;5042515;28;45974;-77
2024/01/17 04:32:06;;;;;;;;;28.75;27.25;;;;;;;;5060054;28;46429;-77
2024/01/17 04:34:31;;;;;;;;;29.25;28.25;;;;;;;;5059860;28;45296;-77
2024/01/17 04:36:57;;;;;;;;;35.50;29.25;;;;;;;;5061039;28;45596;-77
2024/01/17 04:39:22;;;;;;;;;33.25;30.00;;;;;;;;5060631;28;45344;-77
2024/01/17 04:41:47;;;;;;;;;22.25;21.25;;;;;;;;5060697;28;46643;-77
2024/01/17 04:44:12;;;;;;;;;33.50;29.75;;;;;;;;5060660;28;45284;-77
2024/01/17 04:46:38;;;;;;;;;28.25;26.25;;;;;;;;5042643;28;45252;-77
2024/01/17 04:49:03;;;;;;;;;32.25;30.75;;;;;;;;5060559;28;45208;-76
2024/01/17 04:51:28;;;;;;;;;33.50;27.25;;;;;;;;5042220;28;47165;-77
2024/01/17 04:53:53;;;;;;;;;31.50;27.00;;;;;;;;5039103;28;45858;-77
2024/01/17 04:56:19;;;;;;;;;29.75;29.75;;;;;;;;5040619;28;45269;-78
2024/01/17 04:58:45;;;;;;;;;35.25;30.50;;;;;;;;5039817;28;46347;-78
2024/01/17 05:01:11;;;;;;;;;29.00;26.25;;;;;;;;5040116;28;46127;-77
2024/01/17 05:03:36;;;;;;;;;23.00;20.50;;;;;;;;5038248;28;45637;-77
2024/01/17 05:06:02;;;;;;;;;30.75;25.75;;;;;;;;5039063;28;45355;-77
2024/01/17 05:08:27;;;;;;;;;26.50;21.25;;;;;;;;5038965;28;46206;-77
2024/01/17 05:10:53;;;;;;;;;29.25;25.75;;;;;;;;5040299;28;45608;-77
2024/01/17 05:13:18;;;;;;;;;27.25;26.25;;;;;;;;5040311;28;45842;-77
2024/01/17 05:15:43;;;;;;;;;24.75;23.75;;;;;;;;5040071;28;45757;-77
2024/01/17 05:18:11;;;;;;;;;26.75;24.25;;;;;;;;5040034;28;45386;-77
2024/01/17 05:20:37;;;;;;;;;23.25;22.00;;;;;;;;5039698;28;46233;-77
2024/01/17 05:23:02;;;;;;;;;24.50;23.75;;;;;;;;5039714;28;45283;-77
2024/01/17 05:25:27;;;;;;;;;25.75;23.50;;;;;;;;5039454;28;45311;-77
2024/01/17 05:27:53;;;;;;;;;21.50;20.25;;;;;;;;5039287;28;45588;-77
2024/01/17 05:30:19;;;;;;;;;22.50;22.00;;;;;;;;5037956;28;47268;-78
2024/01/17 05:32:44;;;;;;;;;29.50;25.75;;;;;;;;5039576;28;45345;-78
2024/01/17 05:35:09;;;;;;;;;28.25;26.50;;;;;;;;5038473;28;45343;-78
2024/01/17 05:37:35;;;;;;;;;27.75;22.75;;;;;;;;5038433;28;47149;-78
2024/01/17 05:40:00;;;;;;;;;18.50;16.50;;;;;;;;5038264;28;48011;-78
2024/01/17 05:42:25;;;;;;;;;25.67;23.33;;;;;;;;5040020;28;45289;-78
2024/01/17 05:44:51;;;;;;;;;29.50;27.25;;;;;;;;5038705;28;45305;-78
2024/01/17 05:47:16;;;;;;;;;30.50;26.75;;;;;;;;5038231;28;46103;-78
2024/01/17 05:49:41;;;;;;;;;25.50;23.75;;;;;;;;5039292;28;45343;-78
2024/01/17 05:52:07;;;;;;;;;26.00;22.00;;;;;;;;5038112;28;45319;-78
2024/01/17 05:54:32;;;;;;;;;28.50;26.50;;;;;;;;5041645;28;45297;-78
2024/01/17 05:56:57;;;;;;;;;28.00;27.00;;;;;;;;5059602;28;45163;-78
2024/01/17 05:59:22;;;;;;;;;31.00;27.50;;;;;;;;5059562;28;46030;-78
2024/01/17 06:01:47;;;;;;;;;18.25;17.50;;;;;;;;5059556;28;45281;-78
2024/01/17 06:04:13;;;;;;;;;28.50;26.75;;;;;;;;5041495;28;45566;-78
2024/01/17 06:06:38;;;;;;;;;26.25;26.25;;;;;;;;5059631;28;45382;-78
2024/01/17 06:09:05;;;;;;;;;29.25;28.00;;;;;;;;5063410;28;45426;-78
2024/01/17 06:11:30;;;;;;;;;23.25;23.25;;;;;;;;5054741;28;45641;-77
2024/01/17 06:13:55;;;;;;;;;31.25;25.25;;;;;;;;5051317;28;45352;-79
2024/01/17 06:16:23;;;;;;;;;24.25;22.00;;;;;;;;5067117;28;45322;-79
2024/01/17 06:18:48;;;;;;;;;26.50;23.75;;;;;;;;5040807;28;47617;-78
2024/01/17 06:21:13;;;;;;;;;27.75;26.25;;;;;;;;5077791;28;45193;-77
2024/01/17 06:23:39;;;;;;;;;27.50;25.25;;;;;;;;5061230;28;45267;-78
2024/01/17 06:26:04;;;;;;;;;26.75;23.75;;;;;;;;5074563;28;45216;-76
2024/01/17 06:28:29;;;;;;;;;26.50;25.75;;;;;;;;5063749;28;45353;-77
2024/01/17 06:30:54;;;;;;;;;31.75;28.25;;;;;;;;5056597;28;45381;-77
2024/01/17 06:33:19;;;;;;;;;28.25;25.00;;;;;;;;5059997;28;45245;-76
2024/01/17 06:35:48;;;;;;;;;24.50;22.00;;;;;;;;5071659;28;45162;-77
2024/01/17 06:38:13;;;;;;;;;23.75;23.00;;;;;;;;5062783;28;45486;-77
2024/01/17 06:40:38;;;;;;;;;23.00;23.00;;;;;;;;5044121;28;45599;-77
2024/01/17 06:43:03;;;;;;;;;23.67;20.67;;;;;;;;5062801;28;45434;-78
2024/01/17 06:45:29;;;;;;;;;20.00;20.00;;;;;;;;5044320;28;45860;-77
2024/01/17 06:47:54;;;;;;;;;22.50;22.50;;;;;;;;5074828;28;46301;-77
2024/01/17 06:50:19;;;;;;;;;20.50;18.50;;;;;;;;5057552;28;45481;-77
2024/01/17 06:52:44;;;;;;;;;22.75;21.00;;;;;;;;5072352;27;45528;-77
2024/01/17 06:55:10;;;;;;;;;23.50;22.00;;;;;;;;5054730;28;45358;-78
2024/01/17 06:57:35;;;;;;;;;25.00;22.75;;;;;;;;5038761;28;47261;-79
2024/01/17 07:00:00;;;;;;;;;21.75;20.25;;;;;;;;5043964;28;45537;-78
2024/01/17 07:02:25;;;;;;;;;20.67;17.33;;;;;;;;5042472;28;45632;-79
2024/01/17 07:04:50;;;;;;;;;27.75;21.00;;;;;;;;5043428;28;47210;-78
2024/01/17 07:07:16;;;;;;;;;24.50;22.50;;;;;;;;5062250;28;46192;-77
2024/01/17 07:09:41;;;;;;;;;20.50;20.50;;;;;;;;5040292;28;45907;-77
2024/01/17 07:12:06;;;;;;;;;19.50;19.50;;;;;;;;5043523;28;45413;-77
2024/01/17 07:14:32;;;;;;;;;21.50;20.75;;;;;;;;5062124;28;45354;-78
2024/01/17 07:16:57;;;;;;;;;24.50;22.50;;;;;;;;5061365;28;45359;-77
2024/01/17 07:19:22;;;;;;;;;22.50;19.00;;;;;;;;5058380;28;45485;-76
2024/01/17 07:21:48;;;;;;;;;22.50;19.75;;;;;;;;5047403;28;45361;-76
2024/01/17 07:24:13;;;;;;;;;20.67;19.00;;;;;;;;5082258;28;45545;-76
2024/01/17 07:26:38;;;;;;;;;22.00;19.67;;;;;;;;5064010;28;48088;-76
2024/01/17 07:29:03;;;;;;;;;23.67;22.67;;;;;;;;5082439;28;45551;-75
2024/01/17 07:31:28;;;;;;;;;19.33;19.33;;;;;;;;5064006;28;45363;-76
2024/01/17 07:33:53;;;;;;;;;20.67;18.67;;;;;;;;5081928;28;45154;-76
2024/01/17 07:36:19;;;;;;;;;18.67;18.00;;;;;;;;5082201;27;45433;-76
2024/01/17 07:38:44;;;;;;;;;22.00;20.50;;;;;;;;5070725;28;45315;-76
2024/01/17 07:41:09;;;;;;;;;19.75;18.50;;;;;;;;5070294;28;45252;-76
2024/01/17 07:43:34;;;;;;;;;22.67;21.67;;;;;;;;5071445;28;45332;-77
2024/01/17 07:46:00;;;;;;;;;21.00;19.25;;;;;;;;5071617;28;45559;-76
2024/01/17 07:48:25;;;;;;;;;22.75;21.25;;;;;;;;5066897;28;45633;-77
2024/01/17 07:50:51;;;;;;;;;21.67;19.33;;;;;;;;5053805;28;45486;-77
2024/01/17 07:53:17;;;;;;;;;21.75;19.75;;;;;;;;5069332;28;45415;-76
2024/01/17 07:55:42;;;;;;;;;22.33;18.67;;;;;;;;5071273;28;46007;-77
2024/01/17 07:58:07;;;;;;;;;23.50;20.50;;;;;;;;5068221;28;45328;-76
2024/01/17 08:00:32;;;;;;;;;27.25;26.75;;;;;;;;5071931;28;45177;-77
2024/01/17 08:02:58;;;;;;;;;19.67;17.00;;;;;;;;5070135;28;45221;-76
2024/01/17 08:05:23;;;;;;;;;32.50;28.25;;;;;;;;5050456;28;45799;-76
2024/01/17 08:07:48;;;;;;;;;26.00;22.00;;;;;;;;5064458;28;45392;-76
2024/01/17 08:10:13;;;;;;;;;66.50;52.50;;;;;;;;5064234;28;45375;-77
2024/01/17 08:12:38;;;;;;;;;36.25;32.50;;;;;;;;5054115;28;47597;-77
2024/01/17 08:15:04;;;;;;;;;23.00;23.00;;;;;;;;5080163;28;45696;-79
2024/01/17 08:17:30;;;;;;;;;23.33;19.00;;;;;;;;5080461;28;45809;-76
2024/01/17 08:19:55;;;;;;;;;17.25;17.25;;;;;;;;5080366;28;45592;-78
2024/01/17 08:22:20;;;;;;;;;17.67;17.33;;;;;;;;5071056;28;45533;-76
2024/01/17 08:24:46;;;;;;;;;12.25;11.50;;;;;;;;5060087;28;45387;-76
2024/01/17 08:27:11;;;;;;;;;23.50;23.00;;;;;;;;5060505;28;45399;-76
2024/01/17 08:29:36;;;;;;;;;25.67;24.67;;;;;;;;5060603;28;45360;-75
2024/01/17 08:32:01;;;;;;;;;23.75;22.50;;;;;;;;5064072;28;45403;-75
2024/01/17 08:34:26;;;;;;;;;26.75;22.25;;;;;;;;5063996;28;45414;-77
2024/01/17 08:36:54;;;;;;;;;24.75;24.25;;;;;;;;5076240;28;45281;-77
2024/01/17 08:39:20;;;;;;;;;26.33;23.67;;;;;;;;5065846;28;45695;-76
2024/01/17 08:41:46;;;;;;;;;32.25;23.00;;;;;;;;5056697;28;45395;-77
2024/01/17 08:44:15;;;;;;;;;29.67;25.00;;;;;;;;5064384;27;46043;-76
2024/01/17 08:46:46;;;;;;;;;28.33;22.33;;;;;;;;5060512;28;45357;-76
2024/01/17 08:49:12;;;;;;;;;28.00;23.25;;;;;;;;5059677;28;45390;-76
2024/01/17 08:51:37;;;;;;;;;21.00;21.00;;;;;;;;5059912;28;45362;-77
2024/01/17 08:54:05;;;;;;;;;33.00;27.00;;;;;;;;5060146;28;45398;-77
2024/01/17 08:56:31;;;;;;;;;25.25;23.75;;;;;;;;5060274;28;45386;-77
2024/01/17 08:58:56;;;;;;;;;29.25;25.50;;;;;;;;5059979;28;45318;-78
2024/01/17 09:01:21;;;;;;;;;24.50;23.50;;;;;;;;5041516;28;46052;-79
2024/01/17 09:03:47;;;;;;;;;18.00;17.67;;;;;;;;5062575;28;46688;-76
2024/01/17 09:06:12;;;;;;;;;24.33;22.33;;;;;;;;5042466;28;45353;-77
2024/01/17 09:08:37;;;;;;;;;23.00;23.00;;;;;;;;5060301;28;45318;-77
2024/01/17 09:11:03;;;;;;;;;20.67;20.33;;;;;;;;5043436;28;47097;-77
2024/01/17 09:13:28;;;;;;;;;24.50;22.25;;;;;;;;5074201;28;46014;-77
2024/01/17 09:15:53;;;;;;;;;18.00;18.00;;;;;;;;5058473;28;45486;-77
2024/01/17 09:18:20;;;;;;;;;15.33;14.33;;;;;;;;5040728;28;45357;-77
2024/01/17 09:20:45;;;;;;;;;6.33;5.33;;;;;;;;5039142;28;46226;-76
2024/01/17 09:23:10;;;;;;;;;24.33;23.00;;;;;;;;5059696;28;45348;-77
2024/01/17 09:25:36;;;;;;;;;21.33;21.33;;;;;;;;5059933;28;45463;-78
2024/01/17 09:28:01;;;;;;;;;15.33;15.33;;;;;;;;5050291;28;45305;-78
2024/01/17 09:30:26;;;;;;;;;26.33;22.33;;;;;;;;5060853;28;45383;-78
2024/01/17 09:32:51;;;;;;;;;29.67;22.67;;;;;;;;5057494;28;45380;-77
2024/01/17 09:35:16;;;;;;;;;36.75;34.75;;;;;;;;5057628;28;45632;-78
2024/01/17 09:37:42;;;;;;;;;26.50;22.50;;;;;;;;5058254;28;45289;-78
2024/01/17 09:40:08;;;;;;;;;28.00;26.50;;;;;;;;5058210;28;45328;-78
2024/01/17 09:42:33;;;;;;;;;19.00;19.00;;;;;;;;5058991;28;46203;-78
2024/01/17 09:44:59;;;;;;;;;17.33;16.00;;;;;;;;5059017;28;45439;-79
2024/01/17 09:47:24;;;;;;;;;17.67;16.33;;;;;;;;5069470;27;45369;-78
2024/01/17 09:49:50;;;;;;;;;12.67;10.67;;;;;;;;5075061;28;45368;-77
2024/01/17 09:52:17;;;;;;;;;14.33;14.33;;;;;;;;5060186;28;45815;-77
2024/01/17 09:54:45;;;;;;;;;19.67;18.67;;;;;;;;5034044;28;45379;-76
2024/01/17 09:57:17;;;;;;;;;19.00;18.00;;;;;;;;5060744;28;45364;-77
2024/01/17 09:59:45;;;;;;;;;19.33;19.00;;;;;;;;5039829;28;46314;-78
2024/01/17 10:02:12;;;;;;;;;20.00;19.00;;;;;;;;5060779;28;46785;-77
2024/01/17 10:04:38;;;;;;;;;20.00;20.00;;;;;;;;5071978;27;45433;-78
2024/01/17 10:07:03;;;;;;;;;22.67;21.00;;;;;;;;5052773;28;45431;-77
2024/01/17 10:09:29;;;;;;;;;23.00;20.00;;;;;;;;5049893;28;47048;-78
2024/01/17 10:11:54;;;;;;;;;23.67;23.67;;;;;;;;5057961;28;45929;-76
2024/01/17 10:14:23;;;;;;;;;25.50;24.50;;;;;;;;5063595;28;45515;-76
2024/01/17 10:16:48;;;;;;;;;25.67;23.67;;;;;;;;5040745;28;45447;-77
2024/01/17 10:19:15;;;;;;;;;19.00;19.00;;;;;;;;5057975;28;47032;-78
2024/01/17 10:21:41;;;;;;;;;18.00;16.67;;;;;;;;5060360;28;46615;-77
2024/01/17 10:24:06;;;;;;;;;14.33;14.00;;;;;;;;5060196;28;45332;-77
2024/01/17 10:26:32;;;;;;;;;17.00;15.00;;;;;;;;5058557;28;45339;-78
2024/01/17 10:28:57;;;;;;;;;19.00;17.67;;;;;;;;5058185;28;45929;-77
2024/01/17 10:31:23;;;;;;;;;16.67;16.67;;;;;;;;5059271;28;45307;-78
2024/01/17 10:33:54;;;;;;;;;20.00;18.67;;;;;;;;5039503;28;46104;-78
2024/01/17 10:36:26;;;;;;;;;18.00;17.67;;;;;;;;5040316;28;45427;-79
2024/01/17 10:38:51;;;;;;;;;18.67;15.67;;;;;;;;5037220;28;46002;-77
2024/01/17 10:41:16;;;;;;;;;21.67;20.33;;;;;;;;5044099;28;45450;-79
2024/01/17 10:43:53;;;;;;;;;22.67;19.33;;;;;;;;5039549;28;46172;-79
2024/01/17 10:46:18;;;;;;;;;24.67;23.00;;;;;;;;5039872;28;45475;-79
2024/01/17 10:48:43;;;;;;;;;18.67;18.67;;;;;;;;5057456;28;45489;-81
2024/01/17 10:51:09;;;;;;;;;23.00;18.33;;;;;;;;5058041;28;46529;-81
2024/01/17 10:53:34;;;;;;;;;27.33;25.00;;;;;;;;5057609;28;45521;-80
2024/01/17 10:56:03;;;;;;;;;24.67;23.67;;;;;;;;5057946;28;45461;-78
2024/01/17 10:58:32;;;;;;;;;22.00;21.00;;;;;;;;5053272;28;45888;-80
2024/01/17 11:01:07;;;;;;;;;28.00;25.00;;;;;;;;5057865;28;46695;-78
2024/01/17 11:03:36;;;;;;;;;23.00;21.00;;;;;;;;5037934;28;45501;-78
2024/01/17 11:06:02;;;;;;;;;24.67;22.33;;;;;;;;5038145;28;45796;-78
2024/01/17 11:08:28;;;;;;;;;22.33;19.00;;;;;;;;5057880;28;45470;-80
2024/01/17 11:10:55;;;;;;;;;25.00;22.67;;;;;;;;5040116;28;46539;-77
2024/01/17 11:13:20;;;;;;;;;22.00;22.00;;;;;;;;5057525;28;45401;-78
2024/01/17 11:15:46;;;;;;;;;24.00;23.33;;;;;;;;5057967;28;45800;-79
2024/01/17 11:18:12;;;;;;;;;24.50;23.00;;;;;;;;5039349;28;46348;-77
2024/01/17 11:20:39;;;;;;;;;18.00;17.00;;;;;;;;5058024;28;45626;-79
2024/01/17 11:23:06;;;;;;;;;27.50;27.25;;;;;;;;5062270;28;45275;-79
2024/01/17 11:25:53;;;;;;;;;25.50;25.00;;;;;;;;5063241;28;45281;-79
2024/01/17 11:28:22;;;;;;;;;31.75;30.25;;;;;;;;5062429;28;45424;-78
2024/01/17 11:30:47;;;;;;;;;30.75;27.50;;;;;;;;5046388;28;47710;-80
2024/01/17 11:33:13;;;;;;;;;29.00;26.60;;;;;;;;5045427;28;45300;-79
2024/01/17 11:35:42;;;;;;;;;16.00;15.00;;;;;;;;5063351;28;45396;-81
2024/01/17 11:38:22;;;;;;;;;29.67;28.00;;;;;;;;5060850;28;45424;-80
2024/01/17 11:40:48;;;;;;;;;26.00;23.75;;;;;;;;5060232;28;45407;-79
2024/01/17 11:43:16;;;;;;;;;28.50;28.50;;;;;;;;5061838;28;45503;-82
2024/01/17 11:45:41;;;;;;;;;27.00;26.75;;;;;;;;5068508;28;45382;-80
2024/01/17 11:48:25;;;;;;;;;28.67;26.33;;;;;;;;5074330;27;45303;-82
2024/01/17 11:51:06;;;;;;;;;24.33;22.33;;;;;;;;5062316;28;47689;-80
2024/01/17 11:53:35;;;;;;;;;24.00;23.50;;;;;;;;5040340;28;45403;-79
2024/01/17 11:56:00;;;;;;;;;23.33;22.00;;;;;;;;5039983;28;45265;-80
2024/01/17 11:58:42;;;;;;;;;25.00;23.67;;;;;;;;5043485;28;46598;-79
2024/01/17 12:01:12;;;;;;;;;21.33;21.00;;;;;;;;5043053;28;46382;-75
2024/01/17 12:03:38;;;;;;;;;26.33;24.33;;;;;;;;5062996;28;45323;-78
2024/01/17 12:06:03;;;;;;;;;23.00;22.50;;;;;;;;5064938;28;45488;-79
2024/01/17 12:08:29;;;;;;;;;26.33;24.33;;;;;;;;5066116;28;45347;-78
2024/01/17 12:10:54;;;;;;;;;27.67;24.00;;;;;;;;5047824;28;46250;-78
2024/01/17 12:13:21;;;;;;;;;28.33;28.00;;;;;;;;5052459;28;45705;-77
2024/01/17 12:15:48;;;;;;;;;29.67;26.00;;;;;;;;5039355;28;45463;-78
2024/01/17 12:18:17;;;;;;;;;28.50;26.25;;;;;;;;5069227;28;45349;-79
2024/01/17 12:20:43;;;;;;;;;26.00;26.00;;;;;;;;5077635;28;46446;-79
2024/01/17 12:23:08;;;;;;;;;39.25;33.50;;;;;;;;5060753;28;45284;-78
2024/01/17 12:25:33;;;;;;;;;28.50;24.25;;;;;;;;5060729;28;45418;-78
2024/01/17 12:27:59;;;;;;;;;29.50;29.50;;;;;;;;5062849;28;45368;-82
2024/01/17 12:30:24;;;;;;;;;31.25;29.00;;;;;;;;5060259;28;46638;-81
2024/01/17 12:32:50;;;;;;;;;36.25;35.00;;;;;;;;5041854;28;45462;-82
2024/01/17 12:35:15;;;;;;;;;36.50;34.25;;;;;;;;5060002;28;45347;-80
2024/01/17 12:37:40;;;;;;;;;37.00;34.75;;;;;;;;5043130;28;47372;-77
2024/01/17 12:40:05;;;;;;;;;38.00;34.25;;;;;;;;5043474;28;47322;-79
2024/01/17 12:42:31;;;;;;;;;39.75;35.00;;;;;;;;5040773;28;45615;-79
2024/01/17 12:44:57;;;;;;;;;41.50;34.75;;;;;;;;5057056;28;46290;-77
2024/01/17 12:47:22;;;;;;;;;36.50;33.25;;;;;;;;5034879;28;46464;-76
2024/01/17 12:49:48;;;;;;;;;33.75;30.25;;;;;;;;5048263;28;45426;-77
2024/01/17 12:52:17;;;;;;;;;34.75;34.00;;;;;;;;5060515;28;45508;-77
2024/01/17 12:54:42;;;;;;;;;41.75;37.25;;;;;;;;5052761;27;45539;-79
2024/01/17 12:57:08;;;;;;;;;43.75;37.50;;;;;;;;5051446;28;45843;-77
2024/01/17 12:59:33;;;;;;;;;41.00;37.50;;;;;;;;5055764;28;46116;-77
2024/01/17 13:01:58;;;;;;;;;35.75;35.00;;;;;;;;5038542;28;46917;-77
2024/01/17 13:04:23;;;;;;;;;44.50;38.50;;;;;;;;5054448;28;45564;-76
2024/01/17 13:06:51;;;;;;;;;38.00;34.25;;;;;;;;5056405;28;45838;-76
2024/01/17 13:09:18;;;;;;;;;49.00;40.75;;;;;;;;5028612;28;48410;-77
2024/01/17 13:11:50;;;;;;;;;48.00;40.00;;;;;;;;5042178;28;45743;-74
2024/01/17 13:14:16;;;;;;;;;48.25;39.00;;;;;;;;5041945;28;45569;-76
2024/01/17 13:16:41;;;;;;;;;49.25;39.25;;;;;;;;5031669;28;46659;-76
2024/01/17 13:19:11;;;;;;;;;46.50;38.25;;;;;;;;5046286;28;46326;-77
2024/01/17 13:21:37;;;;;;;;;57.75;46.50;;;;;;;;5047826;28;45725;-77
2024/01/17 13:24:02;;;;;;;;;57.75;47.50;;;;;;;;5055353;28;45939;-77
2024/01/17 13:26:29;;;;;;;;;44.00;39.00;;;;;;;;5053757;28;45821;-79
2024/01/17 13:28:56;;;;;;;;;47.50;40.50;;;;;;;;5045753;28;46571;-77
2024/01/17 13:31:21;;;;;;;;;45.75;40.75;;;;;;;;5054595;28;46391;-77
2024/01/17 13:33:47;;;;;;;;;58.00;47.25;;;;;;;;5061198;28;45485;-78
2024/01/17 13:36:12;;;;;;;;;54.25;45.50;;;;;;;;5054358;28;46102;-79
2024/01/17 13:38:39;;;;;;;;;54.25;43.75;;;;;;;;5056766;28;46287;-79
2024/01/17 13:41:05;;;;;;;;;46.50;39.25;;;;;;;;5051720;28;46243;-79
2024/01/17 13:43:30;;;;;;;;;48.00;42.00;;;;;;;;5054619;28;45481;-79
2024/01/17 13:45:55;;;;;;;;;39.25;35.00;;;;;;;;5050597;28;46343;-78
2024/01/17 13:48:20;;;;;;;;;30.67;28.67;;;;;;;;5058221;28;45669;-77
2024/01/17 13:50:47;;;;;;;;;28.00;27.00;;;;;;;;5054528;28;45800;-78
2024/01/17 13:53:28;;;;;;;;;19.00;18.33;;;;;;;;5050704;28;45489;-78
2024/01/17 13:55:54;;;;;;;;;19.33;17.00;;;;;;;;5038648;28;47329;-77
2024/01/17 13:58:19;;;;;;;;;13.33;11.33;;;;;;;;5046873;28;45505;-76
2024/01/17 14:00:44;;;;;;;;;16.33;15.33;;;;;;;;5053190;28;45428;-76
2024/01/17 14:03:09;;;;;;;;;11.00;11.00;;;;;;;;5061804;28;45643;-78
2024/01/17 14:05:34;;;;;;;;;10.67;9.67;;;;;;;;5035478;28;47219;-78
2024/01/17 14:08:00;;;;;;;;;12.67;12.67;;;;;;;;5036186;28;47040;-77